Langston, Oklahoma
Current Conditions -  °F | °C
As of 11:53 AM on Sunday 25 Jan 2015 (Local Time) from KGOK Reporting Station
Clear Clear  
Wind Chill: 53°   Ceiling: Unl
Heat Index: 53°   Visibility: 10mi
Dew Point: 28°   Wind: 16mph
Humidity: 38%   Direction: 320°NW
Pressure: 30.03"   Gusts: 31mph
Location:  35.95°N, 97.26°W
Report Text: KGOK 251753Z AUTO 32014G27KT 10SM CLR 12/M02 A3003 RMK AO2 PK WND 33029/1708 SLP171 T01171022 10122 20072 51017 $
Loading
Personal Weather Stations






























Interactive Weather Map New forecast layout! Learn more

10-Day Weather Forecast

Advertisements
Track Severe Weather on mobile